Time;durP1;ratioP1;P1;durP2;ratioP2;P2;SDS_P1;SDS_P2;PMS_P1;PMS_P2;Temp;Humidity;BMP_temperature;BMP_pressure;BME280_temperature;BME280_humidity;BME280_pressure;Samples;Min_cycle;Max_cycle;Signal;HPM_P1;HPM_P2
2021/05/26 00:00:56;;;;;;;12.15;6.32;;;10.40;99.90;;;;;;5106069;28;20493;-39
2021/05/26 00:03:21;;;;;;;8.85;6.57;;;10.40;99.90;;;;;;5106801;28;20432;-40
2021/05/26 00:05:48;;;;;;;11.90;7.20;;;10.40;99.90;;;;;;5105687;28;20076;-39
2021/05/26 00:08:14;;;;;;;16.25;7.65;;;10.50;99.90;;;;;;5107312;28;20111;-40
2021/05/26 00:10:40;;;;;;;8.45;5.70;;;10.50;99.90;;;;;;5110586;28;20424;-40
2021/05/26 00:13:06;;;;;;;11.07;5.05;;;10.60;99.90;;;;;;5110442;28;20020;-40
2021/05/26 00:15:31;;;;;;;9.30;4.55;;;10.60;99.90;;;;;;5110855;28;20035;-40
2021/05/26 00:18:00;;;;;;;8.27;5.38;;;10.70;99.90;;;;;;5109836;28;20036;-40
2021/05/26 00:20:29;;;;;;;5.65;4.20;;;10.70;99.90;;;;;;5110554;28;20023;-40
2021/05/26 00:22:54;;;;;;;7.30;4.00;;;10.70;99.90;;;;;;5109797;28;20036;-41
2021/05/26 00:25:20;;;;;;;6.65;3.50;;;10.70;99.90;;;;;;5110209;28;20112;-40
2021/05/26 00:27:46;;;;;;;5.55;3.25;;;10.70;99.90;;;;;;5110031;28;20012;-39
2021/05/26 00:30:13;;;;;;;5.38;3.25;;;10.70;99.90;;;;;;5110351;28;20028;-39
2021/05/26 00:32:38;;;;;;;4.68;2.90;;;10.70;99.90;;;;;;5109747;28;20055;-38
2021/05/26 00:35:04;;;;;;;4.25;2.70;;;10.70;99.90;;;;;;5110692;28;20106;-39
2021/05/26 00:37:30;;;;;;;3.83;2.28;;;10.70;99.90;;;;;;5110210;28;20109;-39
2021/05/26 00:39:55;;;;;;;3.53;2.22;;;10.60;99.90;;;;;;5109479;28;20020;-40
2021/05/26 00:42:30;;;;;;;3.45;1.70;;;10.60;99.90;;;;;;5110148;28;20568;-40
2021/05/26 00:44:55;;;;;;;3.67;1.60;;;10.50;99.90;;;;;;5110125;28;20020;-40
2021/05/26 00:47:38;;;;;;;2.55;1.50;;;10.50;99.90;;;;;;5109552;28;20049;-40
2021/05/26 00:50:05;;;;;;;2.20;1.40;;;10.40;99.90;;;;;;5110065;28;20439;-40
2021/05/26 00:52:31;;;;;;;3.63;1.30;;;10.40;99.90;;;;;;5109763;28;20023;-40
2021/05/26 00:54:56;;;;;;;1.95;1.23;;;10.30;99.90;;;;;;5108797;28;20020;-41
2021/05/26 00:57:22;;;;;;;4.80;1.63;;;10.30;99.90;;;;;;5110247;28;20027;-41
2021/05/26 00:59:47;;;;;;;1.85;1.23;;;10.30;99.90;;;;;;5109331;28;20023;-40
2021/05/26 01:02:13;;;;;;;2.80;1.40;;;10.30;99.90;;;;;;5109361;28;20075;-40
2021/05/26 01:04:38;;;;;;;3.10;1.67;;;10.30;99.90;;;;;;5109540;28;20032;-40
2021/05/26 01:07:05;;;;;;;2.47;1.67;;;10.30;99.90;;;;;;5109457;28;20089;-40
2021/05/26 01:09:30;;;;;;;3.60;1.77;;;10.30;99.90;;;;;;5108624;28;20031;-39
2021/05/26 01:11:56;;;;;;;1.60;1.25;;;10.30;99.90;;;;;;5109488;28;20027;-39
2021/05/26 01:14:21;;;;;;;3.15;1.55;;;10.30;99.90;;;;;;5109876;28;20066;-40
2021/05/26 01:16:47;;;;;;;1.60;1.50;;;10.30;99.90;;;;;;5108548;28;20131;-42
2021/05/26 01:19:15;;;;;;;3.40;1.80;;;10.30;99.90;;;;;;5108834;28;20103;-43
2021/05/26 01:21:41;;;;;;;2.80;1.77;;;10.30;99.90;;;;;;5108349;27;20390;-41
2021/05/26 01:24:06;;;;;;;3.53;1.70;;;10.20;99.90;;;;;;5109105;28;20031;-40
2021/05/26 01:26:32;;;;;;;2.90;1.63;;;10.20;99.90;;;;;;5109246;28;20027;-40
2021/05/26 01:29:03;;;;;;;2.40;1.70;;;10.20;99.90;;;;;;5108878;28;20027;-40
2021/05/26 01:31:29;;;;;;;4.65;2.20;;;10.20;99.90;;;;;;5108881;28;20024;-39
2021/05/26 01:33:55;;;;;;;2.03;1.73;;;10.20;99.90;;;;;;5108564;28;20499;-40
2021/05/26 01:36:23;;;;;;;4.60;2.33;;;10.20;99.90;;;;;;5108847;28;20499;-39
2021/05/26 01:38:49;;;;;;;3.70;2.30;;;10.20;99.90;;;;;;5108482;28;20062;-40
2021/05/26 01:41:14;;;;;;;4.60;2.38;;;10.20;99.90;;;;;;5107550;28;20109;-40
2021/05/26 01:43:40;;;;;;;3.80;2.15;;;10.20;99.90;;;;;;5108517;28;20027;-40
2021/05/26 01:46:05;;;;;;;3.45;2.63;;;10.20;99.90;;;;;;5108292;28;20519;-39
2021/05/26 01:48:32;;;;;;;4.30;2.10;;;10.10;99.90;;;;;;5108772;28;20028;-39
2021/05/26 01:50:57;;;;;;;2.25;1.40;;;10.10;99.90;;;;;;5108057;27;20036;-39
2021/05/26 01:53:23;;;;;;;1.98;1.60;;;10.10;99.90;;;;;;5108941;28;20107;-39
2021/05/26 01:55:48;;;;;;;1.92;1.70;;;10.10;99.90;;;;;;5108127;28;20023;-38
2021/05/26 01:58:17;;;;;;;2.17;1.50;;;10.10;99.90;;;;;;5108789;28;20036;-39
2021/05/26 02:00:44;;;;;;;2.30;1.67;;;10.10;99.90;;;;;;5107812;28;20359;-39
2021/05/26 02:03:10;;;;;;;1.95;1.27;;;10.10;99.90;;;;;;5108721;28;20059;-39
2021/05/26 02:05:36;;;;;;;0.90;0.90;;;10.10;99.90;;;;;;5107652;28;20019;-39
2021/05/26 02:08:02;;;;;;;1.45;1.00;;;10.10;99.90;;;;;;5108157;28;20114;-40
2021/05/26 02:13:12;;;;;;;1.45;1.10;;;10.10;99.90;;;;;;5100381;28;20035;-40
2021/05/26 02:15:37;;;;;;;1.27;0.90;;;10.10;99.90;;;;;;5108291;28;20008;-40
2021/05/26 02:18:04;;;;;;;1.58;1.20;;;10.20;99.90;;;;;;5096062;28;20477;-40
2021/05/26 02:20:29;;;;;;;2.70;0.90;;;10.20;99.90;;;;;;5107852;28;20095;-39
2021/05/26 02:22:55;;;;;;;1.30;1.20;;;10.20;99.90;;;;;;5107845;28;20141;-39
2021/05/26 02:25:21;;;;;;;1.52;1.20;;;10.20;99.90;;;;;;5108093;28;20024;-40
2021/05/26 02:27:46;;;;;;;1.95;1.45;;;10.20;99.90;;;;;;5107867;28;20035;-39
2021/05/26 02:30:12;;;;;;;1.95;1.30;;;10.20;99.90;;;;;;5108282;28;20042;-38
2021/05/26 02:32:41;;;;;;;2.40;1.60;;;10.20;99.90;;;;;;5106113;28;20375;-40
2021/05/26 02:35:07;;;;;;;2.83;1.90;;;10.20;99.90;;;;;;5108688;28;20027;-37
2021/05/26 02:37:32;;;;;;;2.03;1.70;;;10.20;99.90;;;;;;5107781;28;20060;-40
2021/05/26 02:39:58;;;;;;;2.38;2.00;;;10.20;99.90;;;;;;5107562;28;20103;-40
2021/05/26 02:42:26;;;;;;;2.75;2.25;;;10.20;99.90;;;;;;5107490;28;20062;-39
2021/05/26 02:44:52;;;;;;;3.17;2.00;;;10.30;99.90;;;;;;5107447;28;20193;-38
2021/05/26 02:47:17;;;;;;;2.70;2.15;;;10.30;99.90;;;;;;5107192;28;20513;-40
2021/05/26 02:49:43;;;;;;;2.70;2.00;;;10.30;99.90;;;;;;5107266;28;20098;-40
2021/05/26 02:52:08;;;;;;;2.55;2.25;;;10.30;99.90;;;;;;5107734;28;20031;-40
2021/05/26 02:54:34;;;;;;;3.30;2.40;;;10.40;99.90;;;;;;5107122;28;20016;-39
2021/05/26 02:56:59;;;;;;;3.45;2.53;;;10.40;99.90;;;;;;5107906;28;20027;-37
2021/05/26 02:59:25;;;;;;;5.13;2.80;;;10.40;99.90;;;;;;5107743;28;20027;-40
2021/05/26 03:01:50;;;;;;;4.55;3.00;;;10.40;99.90;;;;;;5106627;28;20034;-41
2021/05/26 03:04:16;;;;;;;6.95;3.90;;;10.40;99.90;;;;;;5107435;28;20074;-40
2021/05/26 03:06:42;;;;;;;4.75;3.50;;;10.30;99.90;;;;;;5107348;28;20031;-39
2021/05/26 03:09:07;;;;;;;3.53;2.70;;;10.20;99.90;;;;;;5106462;28;20509;-39
2021/05/26 03:11:33;;;;;;;5.32;3.63;;;10.20;99.90;;;;;;5107395;28;20038;-40
2021/05/26 03:13:58;;;;;;;5.88;4.22;;;10.20;99.90;;;;;;5106741;28;20024;-37
2021/05/26 03:16:24;;;;;;;11.05;6.93;;;10.10;99.90;;;;;;5107370;28;20243;-39
2021/05/26 03:18:50;;;;;;;9.60;6.63;;;10.10;99.90;;;;;;5106737;28;20020;-40
2021/05/26 03:21:15;;;;;;;14.43;7.55;;;10.00;99.90;;;;;;5106499;28;20032;-38
2021/05/26 03:23:42;;;;;;;9.30;6.03;;;10.00;99.90;;;;;;5106569;28;20271;-38
2021/05/26 03:26:08;;;;;;;8.63;5.45;;;10.10;99.90;;;;;;5107215;28;20045;-39
2021/05/26 03:28:34;;;;;;;6.47;4.97;;;10.20;99.90;;;;;;5106630;28;20039;-39
2021/05/26 03:31:00;;;;;;;7.90;4.97;;;10.20;99.90;;;;;;5106981;28;20317;-39
2021/05/26 03:33:26;;;;;;;8.23;5.72;;;10.20;99.90;;;;;;5107285;28;20328;-39
2021/05/26 03:35:51;;;;;;;7.65;5.47;;;10.30;99.90;;;;;;5106017;28;20031;-39
2021/05/26 03:38:17;;;;;;;7.57;5.97;;;10.30;99.90;;;;;;5106741;28;20034;-39
2021/05/26 03:40:42;;;;;;;6.07;5.50;;;10.30;99.90;;;;;;5106313;28;20019;-40
2021/05/26 03:43:08;;;;;;;8.20;5.95;;;10.40;99.90;;;;;;5105958;28;20039;-39
2021/05/26 03:45:34;;;;;;;10.82;6.22;;;10.40;99.90;;;;;;5106108;28;20366;-40
2021/05/26 03:48:03;;;;;;;10.05;7.90;;;10.40;99.90;;;;;;5107014;28;20038;-42
2021/05/26 03:50:29;;;;;;;13.45;8.80;;;10.40;99.90;;;;;;5106111;28;20423;-39
2021/05/26 03:52:55;;;;;;;9.88;7.90;;;10.40;99.90;;;;;;5106439;28;20020;-41
2021/05/26 03:55:25;;;;;;;12.13;7.65;;;10.40;99.90;;;;;;5107052;28;20027;-39
2021/05/26 03:57:51;;;;;;;10.73;7.63;;;10.50;99.90;;;;;;5105399;28;20034;-39
2021/05/26 04:00:18;;;;;;;9.70;7.10;;;10.50;99.90;;;;;;5106653;28;20024;-44
2021/05/26 04:02:44;;;;;;;8.48;7.20;;;10.50;99.90;;;;;;5105523;28;20043;-39
2021/05/26 04:05:10;;;;;;;10.43;7.18;;;10.50;99.90;;;;;;5105776;28;20016;-40
2021/05/26 04:07:39;;;;;;;10.90;7.28;;;10.50;99.90;;;;;;5106388;28;20024;-39
2021/05/26 04:10:06;;;;;;;14.65;7.90;;;10.50;99.90;;;;;;5106275;28;20023;-40
2021/05/26 04:12:31;;;;;;;9.35;6.90;;;10.50;99.90;;;;;;5105958;28;20108;-40
2021/05/26 04:14:57;;;;;;;7.60;6.38;;;10.60;99.90;;;;;;5105644;28;20058;-39
2021/05/26 04:17:23;;;;;;;9.40;5.85;;;10.60;99.90;;;;;;5106439;28;20060;-41
2021/05/26 04:19:49;;;;;;;7.97;6.30;;;10.70;99.90;;;;;;5106006;28;20023;-39
2021/05/26 04:22:16;;;;;;;8.50;6.07;;;10.70;99.90;;;;;;5106331;28;20059;-42
2021/05/26 04:24:43;;;;;;;8.70;6.57;;;10.70;99.90;;;;;;5105623;28;20065;-42
2021/05/26 04:27:09;;;;;;;10.52;6.60;;;10.70;99.90;;;;;;5106651;28;20019;-40
2021/05/26 04:29:34;;;;;;;15.63;7.05;;;10.70;99.90;;;;;;5106004;28;20046;-40
2021/05/26 04:32:00;;;;;;;9.57;6.47;;;10.70;99.90;;;;;;5106126;28;20554;-40
2021/05/26 04:34:26;;;;;;;11.98;7.57;;;10.80;99.90;;;;;;5106493;28;20367;-36
2021/05/26 04:36:51;;;;;;;15.25;8.57;;;10.80;99.90;;;;;;5106112;28;20028;-42
2021/05/26 04:39:17;;;;;;;15.02;8.23;;;10.80;99.90;;;;;;5106064;28;20020;-40
2021/05/26 04:41:43;;;;;;;16.00;8.50;;;10.80;99.90;;;;;;5105547;28;20032;-38
2021/05/26 04:44:09;;;;;;;16.67;9.27;;;10.80;99.90;;;;;;5106323;28;20334;-43
2021/05/26 04:46:35;;;;;;;12.57;8.07;;;10.80;99.90;;;;;;5105479;28;20024;-41
2021/05/26 04:49:00;;;;;;;12.05;6.88;;;10.80;99.90;;;;;;5106161;28;20380;-42
2021/05/26 04:51:26;;;;;;;13.02;6.80;;;10.80;99.90;;;;;;5106367;28;20377;-40
2021/05/26 04:53:51;;;;;;;17.17;7.45;;;10.80;99.90;;;;;;5105387;28;20027;-39
2021/05/26 04:56:17;;;;;;;11.10;6.18;;;10.80;99.90;;;;;;5109737;28;20031;-40
2021/05/26 04:58:43;;;;;;;17.77;6.93;;;10.90;99.90;;;;;;5109378;28;20467;-38
2021/05/26 05:01:09;;;;;;;13.05;6.78;;;10.90;99.90;;;;;;5109206;28;20104;-40
2021/05/26 05:03:35;;;;;;;11.43;5.85;;;10.90;99.90;;;;;;5109164;28;20047;-41
2021/05/26 05:06:01;;;;;;;9.30;5.18;;;10.90;99.90;;;;;;5109430;28;20050;-40
2021/05/26 05:08:26;;;;;;;9.23;5.25;;;10.90;99.90;;;;;;5109382;28;20130;-40
2021/05/26 05:10:55;;;;;;;9.93;5.88;;;10.90;99.90;;;;;;5109151;28;20096;-44
2021/05/26 05:13:22;;;;;;;11.45;5.90;;;10.90;99.90;;;;;;5108600;28;20027;-40
2021/05/26 05:15:47;;;;;;;12.90;5.80;;;10.90;99.90;;;;;;5109030;28;20020;-41
2021/05/26 05:18:13;;;;;;;10.15;5.80;;;10.90;99.90;;;;;;5110082;28;20104;-41
2021/05/26 05:20:39;;;;;;;11.68;5.75;;;10.90;99.90;;;;;;5108954;28;20474;-41
2021/05/26 05:23:04;;;;;;;8.43;5.03;;;10.90;99.90;;;;;;5108889;28;20027;-41
2021/05/26 05:25:30;;;;;;;10.70;5.45;;;10.80;99.90;;;;;;5109698;28;20055;-40
2021/05/26 05:27:56;;;;;;;10.18;5.25;;;10.80;99.90;;;;;;5108449;28;20398;-40
2021/05/26 05:30:22;;;;;;;9.70;4.82;;;10.90;99.90;;;;;;5110086;28;20108;-41
2021/05/26 05:32:48;;;;;;;8.00;4.95;;;10.90;99.90;;;;;;5108751;28;20102;-40
2021/05/26 05:35:17;;;;;;;9.38;5.07;;;11.00;99.90;;;;;;5108782;28;20047;-41
2021/05/26 05:37:42;;;;;;;8.48;4.57;;;11.10;99.90;;;;;;5108702;28;20068;-40
2021/05/26 05:40:09;;;;;;;8.82;4.70;;;11.10;99.90;;;;;;5109330;28;20027;-40
2021/05/26 05:42:35;;;;;;;7.78;5.13;;;11.20;99.90;;;;;;5108132;28;20042;-41
2021/05/26 05:45:04;;;;;;;10.05;5.38;;;11.10;99.90;;;;;;5109371;28;20147;-40
2021/05/26 05:47:29;;;;;;;12.13;5.32;;;11.10;99.90;;;;;;5108324;28;20496;-40
2021/05/26 05:49:55;;;;;;;9.65;4.47;;;11.20;99.90;;;;;;5108516;28;20080;-40
2021/05/26 05:52:21;;;;;;;8.05;4.68;;;11.20;99.90;;;;;;5109242;28;20038;-40
2021/05/26 05:54:46;;;;;;;10.55;5.22;;;11.20;99.90;;;;;;5108515;28;20460;-40
2021/05/26 05:57:12;;;;;;;8.38;5.15;;;11.20;99.90;;;;;;5109064;28;20411;-40
2021/05/26 05:59:41;;;;;;;7.05;4.72;;;11.20;99.90;;;;;;5107684;27;20145;-40
2021/05/26 06:02:07;;;;;;;9.13;4.72;;;11.20;99.90;;;;;;5108209;28;20465;-40
2021/05/26 06:04:33;;;;;;;5.40;4.20;;;11.20;99.90;;;;;;5105451;28;20046;-40
2021/05/26 06:06:58;;;;;;;10.02;5.45;;;11.20;99.90;;;;;;5107153;28;20020;-39
2021/05/26 06:09:24;;;;;;;9.13;5.07;;;11.20;99.90;;;;;;5107895;28;20557;-40
2021/05/26 06:11:49;;;;;;;9.93;4.80;;;11.20;99.90;;;;;;5107590;28;20592;-39
2021/05/26 06:14:19;;;;;;;8.10;4.70;;;11.20;99.90;;;;;;5107663;28;20390;-40
2021/05/26 06:16:45;;;;;;;11.68;5.45;;;11.30;99.90;;;;;;5107945;28;20031;-38
2021/05/26 06:19:11;;;;;;;11.25;5.25;;;11.30;99.90;;;;;;5107254;28;20331;-41
2021/05/26 06:21:37;;;;;;;10.50;5.18;;;11.30;99.90;;;;;;5107831;28;20096;-40
2021/05/26 06:24:03;;;;;;;11.45;5.60;;;11.30;99.90;;;;;;5106614;28;20099;-40
2021/05/26 06:26:32;;;;;;;10.13;5.40;;;11.30;99.90;;;;;;5108254;28;20127;-40
2021/05/26 06:29:03;;;;;;;12.50;5.38;;;11.30;99.90;;;;;;5107325;28;20023;-40
2021/05/26 06:31:29;;;;;;;8.50;5.25;;;11.30;99.90;;;;;;5108428;28;20023;-38
2021/05/26 06:33:55;;;;;;;10.80;6.47;;;11.30;99.90;;;;;;5108178;28;21051;-38
2021/05/26 06:36:21;;;;;;;9.80;6.60;;;11.30;99.90;;;;;;5108130;28;20106;-40
2021/05/26 06:38:46;;;;;;;11.65;6.72;;;11.30;99.90;;;;;;5108073;28;20037;-41
2021/05/26 06:41:12;;;;;;;9.75;6.95;;;11.30;99.90;;;;;;5108420;28;20128;-40
2021/05/26 06:43:40;;;;;;;9.77;6.45;;;11.30;99.90;;;;;;5108885;28;20016;-39
2021/05/26 06:46:06;;;;;;;11.38;6.75;;;11.30;99.90;;;;;;5108159;28;20023;-41
2021/05/26 06:48:31;;;;;;;9.65;6.53;;;11.40;99.90;;;;;;5107866;28;20023;-39
2021/05/26 06:50:57;;;;;;;12.05;6.40;;;11.40;99.90;;;;;;5107903;28;20027;-41
2021/05/26 06:53:25;;;;;;;11.15;7.88;;;11.50;99.90;;;;;;5107370;28;20027;-40
2021/05/26 06:55:51;;;;;;;9.30;5.75;;;11.60;99.90;;;;;;5107487;28;20054;-40
2021/05/26 06:58:16;;;;;;;10.30;6.43;;;11.70;99.90;;;;;;5108281;28;20050;-41
2021/05/26 07:00:42;;;;;;;12.88;6.90;;;11.90;99.90;;;;;;5106632;28;20043;-41
2021/05/26 07:03:09;;;;;;;11.68;6.78;;;12.10;99.90;;;;;;5107481;28;20059;-40
2021/05/26 07:05:35;;;;;;;12.55;7.57;;;12.20;99.90;;;;;;5107728;28;20034;-40
2021/05/26 07:08:00;;;;;;;9.23;7.07;;;12.30;99.90;;;;;;5107693;28;20032;-40
2021/05/26 07:10:29;;;;;;;11.52;8.18;;;12.40;99.90;;;;;;5107933;28;20076;-40
2021/05/26 07:12:54;;;;;;;12.38;8.48;;;12.40;99.90;;;;;;5096435;28;20024;-41
2021/05/26 07:15:23;;;;;;;9.70;6.68;;;12.40;99.90;;;;;;5107721;28;20042;-39
2021/05/26 07:17:48;;;;;;;12.07;7.30;;;12.50;99.90;;;;;;5106942;28;20019;-38
2021/05/26 07:20:14;;;;;;;10.65;7.68;;;12.50;99.90;;;;;;5107611;28;20369;-38
2021/05/26 07:22:40;;;;;;;10.45;7.57;;;12.60;99.90;;;;;;5107189;28;20077;-41
2021/05/26 07:25:06;;;;;;;9.82;6.95;;;12.70;99.90;;;;;;5108065;28;20030;-41
2021/05/26 07:27:32;;;;;;;8.60;6.68;;;12.70;99.90;;;;;;5107199;28;20028;-41
2021/05/26 07:29:57;;;;;;;9.10;6.80;;;12.80;99.90;;;;;;5107227;28;20019;-40
2021/05/26 07:32:23;;;;;;;9.63;6.95;;;12.80;99.90;;;;;;5107406;28;20110;-41
2021/05/26 07:34:48;;;;;;;8.00;5.57;;;12.90;99.90;;;;;;5106747;28;20117;-40
2021/05/26 07:37:14;;;;;;;9.57;6.65;;;12.80;99.90;;;;;;5107763;28;20043;-39
2021/05/26 07:39:40;;;;;;;10.25;6.80;;;12.90;99.90;;;;;;5107539;28;20129;-40
2021/05/26 07:42:07;;;;;;;12.18;6.38;;;12.90;99.90;;;;;;5106967;28;20534;-40
2021/05/26 07:44:33;;;;;;;10.68;6.40;;;12.90;99.90;;;;;;5107819;28;20015;-40
2021/05/26 07:47:02;;;;;;;8.00;6.57;;;12.80;99.90;;;;;;5107012;28;20031;-40
2021/05/26 07:49:28;;;;;;;10.98;7.18;;;12.80;99.90;;;;;;5106696;28;20088;-40
2021/05/26 07:52:02;;;;;;;13.27;7.50;;;12.90;99.90;;;;;;5107556;28;20479;-41
2021/05/26 07:54:27;;;;;;;11.57;7.18;;;13.00;99.90;;;;;;5107873;28;20403;-41
2021/05/26 07:56:53;;;;;;;13.18;7.10;;;13.10;99.90;;;;;;5106404;28;20556;-40
2021/05/26 07:59:19;;;;;;;8.57;6.70;;;13.10;99.90;;;;;;5107852;28;20102;-40
2021/05/26 08:01:47;;;;;;;12.10;7.88;;;13.30;99.80;;;;;;5106337;28;20482;-42
2021/05/26 08:04:13;;;;;;;12.55;7.40;;;13.30;99.50;;;;;;5103564;28;20039;-37
2021/05/26 08:06:38;;;;;;;13.57;7.13;;;13.30;99.30;;;;;;5107749;28;20038;-41
2021/05/26 08:09:04;;;;;;;10.15;7.15;;;13.40;99.30;;;;;;5106796;28;20107;-40
2021/05/26 08:11:31;;;;;;;9.75;7.00;;;13.40;99.00;;;;;;5107031;28;20031;-41
2021/05/26 08:13:57;;;;;;;11.45;7.75;;;13.40;99.10;;;;;;5106873;28;20027;-41
2021/05/26 08:16:26;;;;;;;11.13;7.53;;;13.50;99.00;;;;;;5107557;28;20110;-43
2021/05/26 08:18:52;;;;;;;9.75;6.95;;;13.50;98.70;;;;;;5106593;28;20039;-38
2021/05/26 08:21:18;;;;;;;9.77;7.40;;;13.50;98.70;;;;;;5107546;28;20020;-40
2021/05/26 08:23:45;;;;;;;8.70;6.88;;;13.60;98.70;;;;;;5106226;28;20548;-40
2021/05/26 08:26:14;;;;;;;8.95;7.15;;;13.60;98.70;;;;;;5107310;28;20026;-41
2021/05/26 08:28:40;;;;;;;11.02;7.45;;;13.60;98.70;;;;;;5104493;28;20019;-40
2021/05/26 08:31:06;;;;;;;11.32;7.40;;;13.60;98.50;;;;;;5110644;28;20041;-41
2021/05/26 08:33:32;;;;;;;8.75;6.43;;;13.60;98.70;;;;;;5111160;28;20023;-42
2021/05/26 08:35:57;;;;;;;8.52;6.93;;;13.60;98.70;;;;;;5111080;28;20212;-41
2021/05/26 08:38:23;;;;;;;10.82;6.63;;;13.70;98.60;;;;;;5110420;28;20198;-41
2021/05/26 08:40:49;;;;;;;11.00;7.15;;;13.70;98.60;;;;;;5110640;28;20328;-41
2021/05/26 08:43:15;;;;;;;10.57;7.75;;;13.80;98.50;;;;;;5110567;28;20140;-42
2021/05/26 08:45:47;;;;;;;9.38;6.68;;;13.90;98.20;;;;;;5109673;28;20011;-40
2021/05/26 08:48:15;;;;;;;11.18;7.03;;;13.90;98.10;;;;;;5111205;28;20664;-40
2021/05/26 08:50:46;;;;;;;12.63;6.68;;;13.90;98.30;;;;;;5109895;28;20020;-39
2021/05/26 08:53:12;;;;;;;9.18;6.68;;;13.90;98.30;;;;;;5110156;28;20023;-41
2021/05/26 08:55:38;;;;;;;11.88;7.93;;;13.90;98.30;;;;;;5110403;28;20024;-41
2021/05/26 08:58:03;;;;;;;9.80;7.75;;;14.00;97.90;;;;;;5110659;28;20172;-41
2021/05/26 09:00:29;;;;;;;8.68;7.25;;;14.10;98.00;;;;;;5109731;28;20534;-41
2021/05/26 09:02:55;;;;;;;7.63;6.75;;;14.10;97.80;;;;;;5109897;28;20516;-41
2021/05/26 09:05:24;;;;;;;9.65;5.45;;;14.20;97.80;;;;;;5110864;28;20439;-38
2021/05/26 09:07:50;;;;;;;12.35;9.25;;;14.30;97.80;;;;;;5109355;28;21021;-37
2021/05/26 09:10:15;;;;;;;10.00;7.35;;;14.40;97.30;;;;;;5110243;28;20095;-39
2021/05/26 09:12:42;;;;;;;10.07;7.72;;;14.50;97.40;;;;;;5109032;28;20478;-39
2021/05/26 09:15:14;;;;;;;11.20;8.50;;;14.60;97.30;;;;;;5109940;28;20024;-45
2021/05/26 09:17:47;;;;;;;11.18;7.80;;;14.80;97.10;;;;;;5109797;28;20027;-43
2021/05/26 09:20:13;;;;;;;9.68;7.25;;;15.00;97.00;;;;;;5110442;28;20441;-44
2021/05/26 09:22:41;;;;;;;11.73;6.75;;;15.10;96.80;;;;;;5109772;28;20070;-40
2021/05/26 09:25:10;;;;;;;10.85;6.80;;;15.10;96.70;;;;;;5109783;28;20071;-40
2021/05/26 09:27:36;;;;;;;8.13;6.75;;;15.30;96.40;;;;;;5109090;28;20031;-40
2021/05/26 09:30:01;;;;;;;10.40;6.88;;;15.30;95.90;;;;;;5110194;28;20020;-41
2021/05/26 09:32:34;;;;;;;10.10;7.80;;;15.30;96.00;;;;;;5110006;28;20121;-42
2021/05/26 09:35:00;;;;;;;10.77;7.32;;;15.30;95.30;;;;;;5109348;28;20028;-39
2021/05/26 09:37:31;;;;;;;8.13;7.20;;;15.30;95.00;;;;;;5110434;28;20034;-40
2021/05/26 09:40:04;;;;;;;11.50;7.45;;;15.10;94.90;;;;;;5121508;27;20489;-40
2021/05/26 09:42:36;;;;;;;8.68;7.40;;;15.00;95.20;;;;;;5105432;28;20071;-40
2021/05/26 09:45:08;;;;;;;7.28;6.10;;;14.90;95.50;;;;;;5109800;28;20020;-38
2021/05/26 09:47:42;;;;;;;8.68;6.25;;;14.90;95.80;;;;;;5108906;28;20027;-40
2021/05/26 09:50:26;;;;;;;10.20;6.18;;;14.90;95.00;;;;;;5108973;28;20475;-40
2021/05/26 09:53:02;;;;;;;6.97;4.90;;;14.90;95.30;;;;;;5105873;28;20031;-39
2021/05/26 09:55:37;;;;;;;7.53;5.10;;;15.10;94.70;;;;;;5109373;28;20028;-40
2021/05/26 09:58:04;;;;;;;6.13;4.93;;;15.30;94.40;;;;;;5106390;28;20027;-38
2021/05/26 10:00:31;;;;;;;6.47;4.75;;;15.30;94.20;;;;;;5109756;28;20019;-40
2021/05/26 10:02:57;;;;;;;7.63;5.70;;;15.30;93.90;;;;;;5108219;28;20130;-40
2021/05/26 10:05:24;;;;;;;6.45;4.65;;;15.40;93.50;;;;;;5109859;28;20046;-40
2021/05/26 10:07:52;;;;;;;7.65;5.43;;;15.50;93.80;;;;;;5108422;28;20553;-38
2021/05/26 10:10:19;;;;;;;9.15;6.38;;;15.60;93.90;;;;;;5109065;28;20027;-39
2021/05/26 10:12:55;;;;;;;8.40;6.03;;;15.80;93.00;;;;;;5108553;27;20137;-39
2021/05/26 10:15:24;;;;;;;9.27;5.80;;;15.90;93.40;;;;;;5088918;28;20431;-38
2021/05/26 10:17:55;;;;;;;7.45;5.05;;;16.00;93.20;;;;;;5103017;28;20024;-38
2021/05/26 10:20:26;;;;;;;6.35;5.22;;;16.10;93.20;;;;;;5109030;28;20031;-42
2021/05/26 10:22:54;;;;;;;5.10;3.30;;;16.00;93.30;;;;;;5108567;28;20107;-40
2021/05/26 10:25:20;;;;;;;2.55;1.80;;;15.80;92.40;;;;;;5109040;28;20022;-41
2021/05/26 10:27:48;;;;;;;4.10;1.40;;;15.40;91.50;;;;;;5107411;28;20023;-38
2021/05/26 10:30:17;;;;;;;2.95;1.40;;;14.80;91.50;;;;;;5104766;28;20107;-42
2021/05/26 10:32:51;;;;;;;2.80;1.60;;;14.10;93.00;;;;;;5104068;28;20132;-40
2021/05/26 10:35:17;;;;;;;2.55;1.55;;;13.40;94.80;;;;;;5108157;28;20043;-40
2021/05/26 10:37:44;;;;;;;3.97;1.67;;;12.70;96.40;;;;;;5107529;28;20106;-43
2021/05/26 10:40:31;;;;;;;1.48;1.30;;;12.10;97.20;;;;;;5107627;28;20439;-40
2021/05/26 10:43:16;;;;;;;4.53;1.60;;;11.80;98.10;;;;;;5106657;28;20036;-43
2021/05/26 10:45:43;;;;;;;2.08;1.40;;;11.50;98.60;;;;;;5107039;28;20028;-42
2021/05/26 10:48:09;;;;;;;2.33;1.40;;;11.30;99.00;;;;;;5108468;28;20106;-41
2021/05/26 10:50:55;;;;;;;1.55;1.30;;;11.20;99.30;;;;;;5107974;27;20031;-41
2021/05/26 10:53:23;;;;;;;3.47;1.55;;;11.10;99.50;;;;;;5106664;28;20050;-41
2021/05/26 10:55:54;;;;;;;2.65;1.65;;;11.10;99.90;;;;;;5107583;28;20031;-41
2021/05/26 10:58:35;;;;;;;1.83;1.40;;;11.10;99.90;;;;;;5107814;28;20024;-42
2021/05/26 11:01:03;;;;;;;3.28;1.60;;;11.10;99.90;;;;;;5107648;28;20374;-40
2021/05/26 11:03:33;;;;;;;2.75;1.60;;;11.10;99.90;;;;;;5107159;28;20059;-40
2021/05/26 11:06:09;;;;;;;4.47;1.85;;;11.10;99.90;;;;;;5107750;27;20028;-39
2021/05/26 11:11:39;;;;;;;2.58;1.40;;;11.30;99.90;;;;;;5093981;28;20024;-43
2021/05/26 11:14:11;;;;;;;2.65;1.45;;;11.50;99.90;;;;;;5107398;28;20031;-43
2021/05/26 11:16:40;;;;;;;3.13;1.33;;;11.80;99.90;;;;;;5107720;28;20035;-40
2021/05/26 11:19:14;;;;;;;2.55;1.55;;;12.10;99.90;;;;;;5108343;28;20442;-41
2021/05/26 11:21:41;;;;;;;3.65;1.30;;;12.20;99.90;;;;;;5120611;27;20035;-40
2021/05/26 11:24:08;;;;;;;3.95;1.50;;;12.40;99.90;;;;;;5121230;27;20030;-41
2021/05/26 11:26:35;;;;;;;1.48;1.30;;;12.50;99.90;;;;;;5108117;28;20538;-42
2021/05/26 11:29:04;;;;;;;3.10;1.23;;;12.70;99.90;;;;;;5107356;28;20328;-41
2021/05/26 11:31:30;;;;;;;2.40;1.40;;;12.90;99.80;;;;;;5107479;28;20142;-39
2021/05/26 11:33:57;;;;;;;2.53;1.10;;;13.10;98.80;;;;;;5107125;28;20107;-41
2021/05/26 11:36:48;;;;;;;2.40;1.20;;;13.10;98.70;;;;;;5107764;27;20024;-39
2021/05/26 11:39:18;;;;;;;3.83;1.60;;;13.20;98.80;;;;;;5107448;28;20463;-41
2021/05/26 11:41:44;;;;;;;2.40;1.80;;;13.10;99.00;;;;;;5106479;27;20032;-40
2021/05/26 11:44:10;;;;;;;3.78;1.73;;;13.00;99.20;;;;;;5107766;28;20079;-40
2021/05/26 11:46:36;;;;;;;3.42;1.92;;;13.00;99.20;;;;;;5107305;28;20015;-40
2021/05/26 11:49:12;;;;;;;3.58;1.92;;;13.00;99.30;;;;;;5107127;28;20027;-40
2021/05/26 11:51:38;;;;;;;3.00;1.90;;;13.00;99.20;;;;;;5107479;28;20403;-41
2021/05/26 11:54:05;;;;;;;3.92;1.80;;;13.00;99.10;;;;;;5107396;28;20106;-42
2021/05/26 11:56:30;;;;;;;3.53;1.80;;;13.00;99.40;;;;;;5106775;28;20050;-41
2021/05/26 11:58:56;;;;;;;2.30;1.60;;;13.00;99.30;;;;;;5107361;28;20047;-39
2021/05/26 12:01:29;;;;;;;2.90;1.88;;;13.00;99.40;;;;;;5107252;28;20035;-42
2021/05/26 12:03:55;;;;;;;3.13;1.70;;;13.00;99.40;;;;;;5110275;28;20054;-40
2021/05/26 12:06:22;;;;;;;3.20;1.90;;;13.00;99.50;;;;;;5114587;28;20028;-43
2021/05/26 12:08:48;;;;;;;3.70;2.30;;;13.10;99.60;;;;;;5113535;28;20041;-40
2021/05/26 12:11:17;;;;;;;3.33;1.90;;;13.10;99.70;;;;;;5114229;28;20098;-42
2021/05/26 12:13:44;;;;;;;3.38;2.13;;;13.10;99.60;;;;;;5114161;27;20059;-41
2021/05/26 12:16:21;;;;;;;4.43;2.05;;;13.30;99.80;;;;;;5113848;27;20099;-42
2021/05/26 12:18:53;;;;;;;3.65;2.17;;;13.50;99.60;;;;;;5113582;27;20098;-41
2021/05/26 12:21:21;;;;;;;2.33;1.73;;;13.80;99.20;;;;;;5114256;28;20390;-42
2021/05/26 12:23:50;;;;;;;2.13;1.60;;;14.00;98.60;;;;;;5113496;27;20091;-37
2021/05/26 12:26:36;;;;;;;2.63;1.60;;;14.10;97.80;;;;;;5114267;28;20108;-40
2021/05/26 12:29:08;;;;;;;3.60;1.67;;;14.30;97.50;;;;;;5114093;27;20028;-41
2021/05/26 12:31:35;;;;;;;3.33;1.93;;;14.50;97.40;;;;;;5113675;27;20095;-42
2021/05/26 12:34:01;;;;;;;2.42;1.83;;;14.80;97.10;;;;;;5113955;27;20305;-40
2021/05/26 12:36:29;;;;;;;3.03;1.70;;;14.90;96.70;;;;;;5114339;27;20493;-41
2021/05/26 12:39:03;;;;;;;3.00;1.70;;;14.90;95.80;;;;;;5113350;28;20062;-41
2021/05/26 12:41:37;;;;;;;1.55;1.40;;;14.80;95.30;;;;;;5113409;27;20026;-42
2021/05/26 12:44:19;;;;;;;2.50;1.63;;;14.60;95.20;;;;;;5103253;27;20049;-41
2021/05/26 12:46:51;;;;;;;2.40;1.92;;;14.60;95.00;;;;;;5113225;28;20016;-39
2021/05/26 12:49:30;;;;;;;1.55;1.40;;;14.50;94.60;;;;;;5114057;28;20482;-41